sensor_id;sensor_type;location;lat;lon;timestamp;pressure;altitude;pressure_sealevel;temperature;humidity
30724;BME280;17473;52.286;20.930;2022-12-18T00:01:27;101636.72;;;-2.16;73.92
30724;BME280;17473;52.286;20.930;2022-12-18T00:03:55;101625.50;;;2.74;95.16
30724;BME280;17473;52.286;20.930;2022-12-18T00:06:24;101642.31;;;-0.30;70.70
30724;BME280;17473;52.286;20.930;2022-12-18T00:08:52;101644.03;;;-1.27;73.39
30724;BME280;17473;52.286;20.930;2022-12-18T00:11:23;101645.59;;;-1.63;74.81
30724;BME280;17473;52.286;20.930;2022-12-18T00:13:52;101658.09;;;-1.67;74.82
30724;BME280;17473;52.286;20.930;2022-12-18T00:16:22;101658.22;;;-1.75;75.18
30724;BME280;17473;52.286;20.930;2022-12-18T00:18:52;101657.59;;;-1.72;75.23
30724;BME280;17473;52.286;20.930;2022-12-18T00:21:21;101666.88;;;-1.74;74.52
30724;BME280;17473;52.286;20.930;2022-12-18T00:23:49;101663.81;;;-1.79;75.05
30724;BME280;17473;52.286;20.930;2022-12-18T00:26:24;101672.84;;;-1.75;74.68
30724;BME280;17473;52.286;20.930;2022-12-18T00:28:52;101675.31;;;-1.68;74.63
30724;BME280;17473;52.286;20.930;2022-12-18T00:31:22;101669.94;;;-1.69;74.20
30724;BME280;17473;52.286;20.930;2022-12-18T00:33:50;101675.47;;;-1.66;74.61
30724;BME280;17473;52.286;20.930;2022-12-18T00:36:27;101677.63;;;-1.62;74.15
30724;BME280;17473;52.286;20.930;2022-12-18T00:38:57;101682.34;;;-1.67;74.46
30724;BME280;17473;52.286;20.930;2022-12-18T00:41:25;101689.78;;;-1.61;74.47
30724;BME280;17473;52.286;20.930;2022-12-18T00:44:14;101692.00;;;-1.48;73.65
30724;BME280;17473;52.286;20.930;2022-12-18T00:46:43;101695.03;;;-1.52;73.75
30724;BME280;17473;52.286;20.930;2022-12-18T00:49:11;101695.78;;;-1.53;73.66
30724;BME280;17473;52.286;20.930;2022-12-18T00:51:38;101695.59;;;-1.64;73.93
30724;BME280;17473;52.286;20.930;2022-12-18T00:54:05;101703.06;;;-1.58;73.73
30724;BME280;17473;52.286;20.930;2022-12-18T00:56:32;101698.03;;;-1.57;74.04
30724;BME280;17473;52.286;20.930;2022-12-18T00:58:59;101703.22;;;-1.57;73.73
30724;BME280;17473;52.286;20.930;2022-12-18T01:01:26;101716.03;;;-1.58;73.49
30724;BME280;17473;52.286;20.930;2022-12-18T01:03:53;101706.63;;;-1.49;73.39
30724;BME280;17473;52.286;20.930;2022-12-18T01:06:20;101717.13;;;-1.47;73.21
30724;BME280;17473;52.286;20.930;2022-12-18T01:08:47;101711.19;;;-1.55;73.53
30724;BME280;17473;52.286;20.930;2022-12-18T01:11:17;101707.22;;;-1.51;73.38
30724;BME280;17473;52.286;20.930;2022-12-18T01:13:44;101710.00;;;-1.41;73.08
30724;BME280;17473;52.286;20.930;2022-12-18T01:16:14;101719.00;;;-1.37;72.99
30724;BME280;17473;52.286;20.930;2022-12-18T01:18:42;101728.59;;;-1.45;73.22
30724;BME280;17473;52.286;20.930;2022-12-18T01:21:13;101731.50;;;-1.42;73.04
30724;BME280;17473;52.286;20.930;2022-12-18T01:23:40;101719.28;;;-1.43;72.50
30724;BME280;17473;52.286;20.930;2022-12-18T01:26:12;101728.31;;;-1.39;72.42
30724;BME280;17473;52.286;20.930;2022-12-18T01:28:40;101726.94;;;-1.36;71.77
30724;BME280;17473;52.286;20.930;2022-12-18T01:31:18;101735.81;;;-1.25;71.65
30724;BME280;17473;52.286;20.930;2022-12-18T01:33:48;101738.81;;;-1.38;71.25
30724;BME280;17473;52.286;20.930;2022-12-18T01:36:21;101751.19;;;-1.35;71.27
30724;BME280;17473;52.286;20.930;2022-12-18T01:38:51;101754.38;;;-1.38;71.18
30724;BME280;17473;52.286;20.930;2022-12-18T01:41:24;101759.88;;;-1.35;71.46
30724;BME280;17473;52.286;20.930;2022-12-18T01:43:56;101761.38;;;-1.37;71.51
30724;BME280;17473;52.286;20.930;2022-12-18T01:46:27;101767.97;;;-1.32;71.46
30724;BME280;17473;52.286;20.930;2022-12-18T01:49:00;101777.28;;;-1.25;70.73
30724;BME280;17473;52.286;20.930;2022-12-18T01:51:29;101773.16;;;-1.32;71.25
30724;BME280;17473;52.286;20.930;2022-12-18T01:53:57;101771.34;;;-1.33;71.20
30724;BME280;17473;52.286;20.930;2022-12-18T01:56:24;101775.31;;;-1.28;71.38
30724;BME280;17473;52.286;20.930;2022-12-18T01:59:02;101771.19;;;-1.26;70.81
30724;BME280;17473;52.286;20.930;2022-12-18T02:01:31;101782.19;;;-1.28;71.26
30724;BME280;17473;52.286;20.930;2022-12-18T02:04:23;101780.47;;;-1.28;70.97
30724;BME280;17473;52.286;20.930;2022-12-18T02:10:00;101790.38;;;-1.32;70.96
30724;BME280;17473;52.286;20.930;2022-12-18T02:12:43;101794.00;;;-1.39;71.40
30724;BME280;17473;52.286;20.930;2022-12-18T02:15:19;101803.47;;;-1.39;71.35
30724;BME280;17473;52.286;20.930;2022-12-18T02:17:58;101812.25;;;-1.46;71.63
30724;BME280;17473;52.286;20.930;2022-12-18T02:20:48;101816.09;;;-1.43;71.52
30724;BME280;17473;52.286;20.930;2022-12-18T02:29:21;101812.13;;;-1.39;71.24
30724;BME280;17473;52.286;20.930;2022-12-18T02:31:53;101820.53;;;-1.42;70.97
30724;BME280;17473;52.286;20.930;2022-12-18T02:34:26;101830.19;;;-1.57;71.75
30724;BME280;17473;52.286;20.930;2022-12-18T02:36:55;101821.03;;;-1.62;72.01
30724;BME280;17473;52.286;20.930;2022-12-18T02:39:25;101833.06;;;-1.62;71.81
30724;BME280;17473;52.286;20.930;2022-12-18T02:41:53;101833.97;;;-1.62;71.80
30724;BME280;17473;52.286;20.930;2022-12-18T02:44:20;101840.50;;;-1.65;72.03
30724;BME280;17473;52.286;20.930;2022-12-18T02:46:52;101843.84;;;-1.66;72.14
30724;BME280;17473;52.286;20.930;2022-12-18T02:49:59;101833.97;;;-1.62;71.29
30724;BME280;17473;52.286;20.930;2022-12-18T02:55:44;101857.81;;;-1.73;71.68
30724;BME280;17473;52.286;20.930;2022-12-18T02:59:06;101861.00;;;-1.76;72.22
30724;BME280;17473;52.286;20.930;2022-12-18T03:01:50;101871.88;;;-1.71;71.64
30724;BME280;17473;52.286;20.930;2022-12-18T03:04:25;101867.66;;;-1.62;71.39
30724;BME280;17473;52.286;20.930;2022-12-18T03:06:58;101878.91;;;-1.45;70.34
30724;BME280;17473;52.286;20.930;2022-12-18T03:09:35;101877.28;;;-1.61;70.40
30724;BME280;17473;52.286;20.930;2022-12-18T03:12:16;101891.75;;;-1.79;71.37
30724;BME280;17473;52.286;20.930;2022-12-18T03:17:33;101894.44;;;-1.86;71.36
30724;BME280;17473;52.286;20.930;2022-12-18T03:20:07;101898.72;;;-1.86;71.73
30724;BME280;17473;52.286;20.930;2022-12-18T03:22:38;101894.28;;;-1.87;71.68
30724;BME280;17473;52.286;20.930;2022-12-18T03:25:12;101902.97;;;-1.87;71.76
30724;BME280;17473;52.286;20.930;2022-12-18T03:27:45;101901.56;;;-1.92;72.14
30724;BME280;17473;52.286;20.930;2022-12-18T03:30:15;101909.19;;;-1.94;72.10
30724;BME280;17473;52.286;20.930;2022-12-18T03:33:06;101910.09;;;-1.93;71.77
30724;BME280;17473;52.286;20.930;2022-12-18T03:35:39;101913.44;;;-1.94;72.56
30724;BME280;17473;52.286;20.930;2022-12-18T03:38:07;101915.59;;;-1.90;72.09
30724;BME280;17473;52.286;20.930;2022-12-18T03:47:14;101926.31;;;-2.03;72.52
30724;BME280;17473;52.286;20.930;2022-12-18T03:52:49;101922.13;;;-1.94;71.78
30724;BME280;17473;52.286;20.930;2022-12-18T03:55:20;101925.63;;;-1.93;72.16
30724;BME280;17473;52.286;20.930;2022-12-18T03:57:48;101926.31;;;-2.03;72.53
30724;BME280;17473;52.286;20.930;2022-12-18T04:00:19;101941.66;;;-2.05;72.60
30724;BME280;17473;52.286;20.930;2022-12-18T04:02:51;101934.72;;;-2.13;72.72
30724;BME280;17473;52.286;20.930;2022-12-18T04:05:20;101933.38;;;-2.09;72.56
30724;BME280;17473;52.286;20.930;2022-12-18T04:07:49;101936.81;;;-2.01;72.56
30724;BME280;17473;52.286;20.930;2022-12-18T04:10:18;101932.38;;;-2.18;72.81
30724;BME280;17473;52.286;20.930;2022-12-18T04:12:45;101944.41;;;-2.19;72.79
30724;BME280;17473;52.286;20.930;2022-12-18T04:15:12;101950.34;;;-2.20;72.98
30724;BME280;17473;52.286;20.930;2022-12-18T04:17:48;101963.03;;;-2.14;72.99
30724;BME280;17473;52.286;20.930;2022-12-18T04:20:16;101965.41;;;-2.09;72.69
30724;BME280;17473;52.286;20.930;2022-12-18T04:22:43;101959.44;;;-1.92;72.31
30724;BME280;17473;52.286;20.930;2022-12-18T04:25:12;101979.31;;;-2.15;72.80
30724;BME280;17473;52.286;20.930;2022-12-18T04:27:39;101967.97;;;-2.09;72.32
30724;BME280;17473;52.286;20.930;2022-12-18T04:30:07;101986.09;;;-2.09;72.57
30724;BME280;17473;52.286;20.930;2022-12-18T04:32:35;101985.84;;;-2.19;72.60
30724;BME280;17473;52.286;20.930;2022-12-18T04:35:02;101988.81;;;-2.23;73.02
30724;BME280;17473;52.286;20.930;2022-12-18T04:37:30;101986.00;;;-2.17;72.42
30724;BME280;17473;52.286;20.930;2022-12-18T04:39:57;101998.19;;;-2.16;71.86
30724;BME280;17473;52.286;20.930;2022-12-18T04:42:24;101986.59;;;-2.20;72.22
30724;BME280;17473;52.286;20.930;2022-12-18T04:44:51;101996.09;;;-2.28;71.99
30724;BME280;17473;52.286;20.930;2022-12-18T04:47:18;101987.81;;;-2.32;72.19
30724;BME280;17473;52.286;20.930;2022-12-18T04:49:45;101994.06;;;-2.30;72.04
30724;BME280;17473;52.286;20.930;2022-12-18T04:52:12;102004.16;;;-2.41;72.06
30724;BME280;17473;52.286;20.930;2022-12-18T04:54:39;102015.75;;;-2.37;71.86
30724;BME280;17473;52.286;20.930;2022-12-18T04:57:06;102016.19;;;-2.41;71.80
30724;BME280;17473;52.286;20.930;2022-12-18T04:59:33;102016.63;;;-2.53;71.52
30724;BME280;17473;52.286;20.930;2022-12-18T05:02:00;102023.31;;;-2.55;71.50
30724;BME280;17473;52.286;20.930;2022-12-18T05:04:27;102025.38;;;-2.59;71.83
30724;BME280;17473;52.286;20.930;2022-12-18T05:06:54;102014.13;;;-2.60;71.45
30724;BME280;17473;52.286;20.930;2022-12-18T05:09:21;102026.19;;;-2.68;71.80
30724;BME280;17473;52.286;20.930;2022-12-18T05:11:48;102032.00;;;-2.77;72.27
30724;BME280;17473;52.286;20.930;2022-12-18T05:14:15;102040.38;;;-2.87;72.57
30724;BME280;17473;52.286;20.930;2022-12-18T05:16:42;102042.66;;;-2.97;73.21
30724;BME280;17473;52.286;20.930;2022-12-18T05:19:09;102050.22;;;-2.99;73.04
30724;BME280;17473;52.286;20.930;2022-12-18T05:21:37;102057.81;;;-3.01;73.55
30724;BME280;17473;52.286;20.930;2022-12-18T05:24:04;102057.13;;;-3.07;73.36
30724;BME280;17473;52.286;20.930;2022-12-18T05:26:31;102059.34;;;-3.10;73.70
30724;BME280;17473;52.286;20.930;2022-12-18T05:28:58;102066.47;;;-3.00;73.96
30724;BME280;17473;52.286;20.930;2022-12-18T05:31:25;102062.66;;;-2.80;73.12
30724;BME280;17473;52.286;20.930;2022-12-18T05:33:52;102079.19;;;-2.87;73.06
30724;BME280;17473;52.286;20.930;2022-12-18T05:36:20;102069.00;;;-2.86;73.17
30724;BME280;17473;52.286;20.930;2022-12-18T05:38:47;102074.00;;;-2.94;73.26
30724;BME280;17473;52.286;20.930;2022-12-18T05:41:14;102078.81;;;-2.90;73.48
30724;BME280;17473;52.286;20.930;2022-12-18T05:43:42;102074.44;;;-2.99;73.92
30724;BME280;17473;52.286;20.930;2022-12-18T05:46:14;102080.28;;;-2.92;73.68
30724;BME280;17473;52.286;20.930;2022-12-18T05:48:42;102081.56;;;-2.89;73.67
30724;BME280;17473;52.286;20.930;2022-12-18T05:51:13;102093.75;;;-2.88;74.33
30724;BME280;17473;52.286;20.930;2022-12-18T05:53:42;102084.94;;;-2.97;74.61
30724;BME280;17473;52.286;20.930;2022-12-18T05:56:20;102089.00;;;-2.92;75.06
30724;BME280;17473;52.286;20.930;2022-12-18T05:58:52;102093.91;;;-2.86;75.07
30724;BME280;17473;52.286;20.930;2022-12-18T06:01:24;102098.09;;;-2.72;74.86
30724;BME280;17473;52.286;20.930;2022-12-18T06:03:52;102096.91;;;-2.90;75.28
30724;BME280;17473;52.286;20.930;2022-12-18T06:06:25;102100.38;;;-2.83;75.96
30724;BME280;17473;52.286;20.930;2022-12-18T06:08:54;102097.81;;;-2.83;75.89
30724;BME280;17473;52.286;20.930;2022-12-18T06:11:25;102110.00;;;-2.89;76.53
30724;BME280;17473;52.286;20.930;2022-12-18T06:13:55;102111.28;;;-2.85;76.93
30724;BME280;17473;52.286;20.930;2022-12-18T06:16:26;102102.56;;;-2.78;76.65
30724;BME280;17473;52.286;20.930;2022-12-18T06:18:57;102107.16;;;-2.76;76.39
30724;BME280;17473;52.286;20.930;2022-12-18T06:21:24;102123.94;;;-2.72;76.69
30724;BME280;17473;52.286;20.930;2022-12-18T06:23:51;102122.50;;;-2.77;77.27
30724;BME280;17473;52.286;20.930;2022-12-18T06:26:19;102132.44;;;-2.73;76.83
30724;BME280;17473;52.286;20.930;2022-12-18T06:28:53;102131.91;;;-2.78;76.94
30724;BME280;17473;52.286;20.930;2022-12-18T06:31:20;102137.28;;;-2.76;77.59
30724;BME280;17473;52.286;20.930;2022-12-18T06:33:47;102141.72;;;-2.75;77.52
30724;BME280;17473;52.286;20.930;2022-12-18T06:36:14;102153.91;;;-2.74;77.35
30724;BME280;17473;52.286;20.930;2022-12-18T06:38:43;102147.28;;;-2.79;77.42
30724;BME280;17473;52.286;20.930;2022-12-18T06:41:14;102157.78;;;-2.71;77.41
30724;BME280;17473;52.286;20.930;2022-12-18T06:43:42;102162.75;;;-2.65;77.71
30724;BME280;17473;52.286;20.930;2022-12-18T06:46:11;102168.78;;;-2.57;76.88
30724;BME280;17473;52.286;20.930;2022-12-18T06:48:39;102171.25;;;-2.66;77.26
30724;BME280;17473;52.286;20.930;2022-12-18T06:51:06;102172.50;;;-2.62;77.27
30724;BME280;17473;52.286;20.930;2022-12-18T06:53:33;102168.50;;;-2.75;77.63
30724;BME280;17473;52.286;20.930;2022-12-18T06:56:06;102171.03;;;-2.68;77.94
30724;BME280;17473;52.286;20.930;2022-12-18T06:58:37;102175.47;;;-2.67;78.21
30724;BME280;17473;52.286;20.930;2022-12-18T07:01:08;102176.41;;;-2.66;78.25
30724;BME280;17473;52.286;20.930;2022-12-18T07:03:36;102194.84;;;-2.63;78.10
30724;BME280;17473;52.286;20.930;2022-12-18T07:06:05;102190.75;;;-2.54;78.12
30724;BME280;17473;52.286;20.930;2022-12-18T07:08:33;102190.19;;;-2.51;77.79
30724;BME280;17473;52.286;20.930;2022-12-18T07:11:03;102197.53;;;-2.47;77.81
30724;BME280;17473;52.286;20.930;2022-12-18T07:13:31;102203.88;;;-2.22;77.07
30724;BME280;17473;52.286;20.930;2022-12-18T07:16:25;102210.06;;;-2.36;77.59
30724;BME280;17473;52.286;20.930;2022-12-18T07:18:54;102200.66;;;-2.42;77.54
30724;BME280;17473;52.286;20.930;2022-12-18T07:21:22;102198.25;;;-2.41;77.82
30724;BME280;17473;52.286;20.930;2022-12-18T07:23:50;102214.28;;;-2.29;77.71
30724;BME280;17473;52.286;20.930;2022-12-18T07:26:20;102210.91;;;-2.28;77.73
30724;BME280;17473;52.286;20.930;2022-12-18T07:28:47;102226.91;;;-2.09;77.30
30724;BME280;17473;52.286;20.930;2022-12-18T07:31:19;102220.47;;;-2.12;77.41
30724;BME280;17473;52.286;20.930;2022-12-18T07:33:48;102227.53;;;-1.95;77.07
30724;BME280;17473;52.286;20.930;2022-12-18T07:36:16;102228.13;;;-1.75;76.37
30724;BME280;17473;52.286;20.930;2022-12-18T07:38:43;102238.41;;;-1.91;76.89
30724;BME280;17473;52.286;20.930;2022-12-18T07:41:13;102238.09;;;-1.94;77.39
30724;BME280;17473;52.286;20.930;2022-12-18T07:43:41;102248.97;;;-1.89;77.37
30724;BME280;17473;52.286;20.930;2022-12-18T07:46:09;102249.34;;;-1.93;76.97
30724;BME280;17473;52.286;20.930;2022-12-18T07:48:40;102248.63;;;-1.92;77.04
30724;BME280;17473;52.286;20.930;2022-12-18T07:51:10;102258.81;;;-1.70;76.19
30724;BME280;17473;52.286;20.930;2022-12-18T07:53:37;102269.00;;;-1.72;75.79
30724;BME280;17473;52.286;20.930;2022-12-18T07:56:09;102260.63;;;-1.93;76.87
30724;BME280;17473;52.286;20.930;2022-12-18T07:58:56;102278.00;;;-1.84;76.62
30724;BME280;17473;52.286;20.930;2022-12-18T08:01:23;102274.28;;;-1.86;76.44
30724;BME280;17473;52.286;20.930;2022-12-18T08:03:51;102267.78;;;-1.83;76.67
30724;BME280;17473;52.286;20.930;2022-12-18T08:06:19;102282.53;;;-1.75;76.30
30724;BME280;17473;52.286;20.930;2022-12-18T08:08:55;102295.13;;;-1.78;76.20
30724;BME280;17473;52.286;20.930;2022-12-18T08:11:24;102280.69;;;-1.76;75.95
30724;BME280;17473;52.286;20.930;2022-12-18T08:13:52;102293.25;;;-1.71;75.51
30724;BME280;17473;52.286;20.930;2022-12-18T08:16:21;102287.72;;;-1.75;75.52
30724;BME280;17473;52.286;20.930;2022-12-18T08:18:48;102280.16;;;-1.80;75.52
30724;BME280;17473;52.286;20.930;2022-12-18T08:21:29;102290.47;;;-1.73;75.66
30724;BME280;17473;52.286;20.930;2022-12-18T08:23:59;102296.91;;;-1.69;75.19
30724;BME280;17473;52.286;20.930;2022-12-18T08:26:29;102313.56;;;-1.67;74.79
30724;BME280;17473;52.286;20.930;2022-12-18T08:28:58;102312.31;;;-1.48;74.44
30724;BME280;17473;52.286;20.930;2022-12-18T08:31:27;102319.72;;;-1.51;74.47
30724;BME280;17473;52.286;20.930;2022-12-18T08:33:55;102324.91;;;-1.51;74.63
30724;BME280;17473;52.286;20.930;2022-12-18T08:36:23;102338.53;;;-1.37;73.63
30724;BME280;17473;52.286;20.930;2022-12-18T08:38:52;102335.69;;;-1.55;74.35
30724;BME280;17473;52.286;20.930;2022-12-18T08:41:20;102341.06;;;-1.53;74.20
30724;BME280;17473;52.286;20.930;2022-12-18T08:43:47;102331.78;;;-1.51;74.10
30724;BME280;17473;52.286;20.930;2022-12-18T08:46:39;102329.78;;;-1.61;74.73
30724;BME280;17473;52.286;20.930;2022-12-18T08:49:07;102324.22;;;-1.57;74.56
30724;BME280;17473;52.286;20.930;2022-12-18T08:51:35;102338.91;;;-1.42;74.60
30724;BME280;17473;52.286;20.930;2022-12-18T08:54:03;102342.16;;;-1.51;74.66
30724;BME280;17473;52.286;20.930;2022-12-18T08:56:32;102344.00;;;-1.50;74.65
30724;BME280;17473;52.286;20.930;2022-12-18T08:59:00;102336.97;;;-1.28;74.25
30724;BME280;17473;52.286;20.930;2022-12-18T09:01:27;102345.38;;;-1.15;73.71
30724;BME280;17473;52.286;20.930;2022-12-18T09:03:55;102345.22;;;-1.16;73.49
30724;BME280;17473;52.286;20.930;2022-12-18T09:06:22;102337.28;;;-1.02;73.61
30724;BME280;17473;52.286;20.930;2022-12-18T09:08:50;102343.75;;;-0.82;72.64
30724;BME280;17473;52.286;20.930;2022-12-18T09:11:24;102347.09;;;-0.99;72.85
30724;BME280;17473;52.286;20.930;2022-12-18T09:13:52;102352.28;;;-0.99;73.21
30724;BME280;17473;52.286;20.930;2022-12-18T09:16:22;102355.94;;;-0.97;72.81
30724;BME280;17473;52.286;20.930;2022-12-18T09:18:58;102364.72;;;-0.65;71.44
30724;BME280;17473;52.286;20.930;2022-12-18T09:21:32;102369.31;;;-0.62;70.96
30724;BME280;17473;52.286;20.930;2022-12-18T09:24:04;102360.88;;;-0.68;70.72
30724;BME280;17473;52.286;20.930;2022-12-18T09:26:35;102375.78;;;-0.42;70.68
30724;BME280;17473;52.286;20.930;2022-12-18T09:29:03;102361.88;;;-0.59;70.42
30724;BME280;17473;52.286;20.930;2022-12-18T09:31:30;102363.28;;;-0.54;70.59
30724;BME280;17473;52.286;20.930;2022-12-18T09:33:57;102365.50;;;-0.50;70.32
30724;BME280;17473;52.286;20.930;2022-12-18T09:36:24;102367.50;;;-0.47;70.20
30724;BME280;17473;52.286;20.930;2022-12-18T09:38:51;102357.38;;;-0.21;69.34
30724;BME280;17473;52.286;20.930;2022-12-18T09:41:46;102356.53;;;-0.28;69.86
30724;BME280;17473;52.286;20.930;2022-12-18T09:44:32;102351.97;;;-0.06;68.91
30724;BME280;17473;52.286;20.930;2022-12-18T09:47:18;102363.56;;;-0.11;68.85
30724;BME280;17473;52.286;20.930;2022-12-18T09:49:51;102368.72;;;0.05;68.19
30724;BME280;17473;52.286;20.930;2022-12-18T09:57:45;102369.50;;;-0.12;68.33
30724;BME280;17473;52.286;20.930;2022-12-18T10:00:21;102369.84;;;-0.25;69.00
30724;BME280;17473;52.286;20.930;2022-12-18T10:02:51;102375.34;;;-0.22;69.41
30724;BME280;17473;52.286;20.930;2022-12-18T10:05:37;102379.06;;;-0.20;69.42
30724;BME280;17473;52.286;20.930;2022-12-18T10:14:12;102394.28;;;0.09;68.42
30724;BME280;17473;52.286;20.930;2022-12-18T10:16:55;102399.19;;;-0.10;68.83
30724;BME280;17473;52.286;20.930;2022-12-18T10:27:31;102385.75;;;-0.06;68.28
30724;BME280;17473;52.286;20.930;2022-12-18T10:30:00;102386.34;;;-0.09;68.13
30724;BME280;17473;52.286;20.930;2022-12-18T10:32:30;102382.16;;;-0.16;68.38
30724;BME280;17473;52.286;20.930;2022-12-18T10:34:58;102389.63;;;-0.19;68.17
30724;BME280;17473;52.286;20.930;2022-12-18T10:37:29;102371.34;;;-0.11;68.33
30724;BME280;17473;52.286;20.930;2022-12-18T10:40:13;102390.63;;;-0.09;67.84
30724;BME280;17473;52.286;20.930;2022-12-18T10:45:30;102384.94;;;-0.14;67.68
30724;BME280;17473;52.286;20.930;2022-12-18T10:47:58;102384.84;;;-0.07;67.66
30724;BME280;17473;52.286;20.930;2022-12-18T10:50:37;102378.91;;;-0.06;67.77
30724;BME280;17473;52.286;20.930;2022-12-18T10:53:27;102382.00;;;-0.01;67.34
30724;BME280;17473;52.286;20.930;2022-12-18T10:56:00;102379.09;;;0.21;66.82
30724;BME280;17473;52.286;20.930;2022-12-18T10:58:32;102386.88;;;0.21;66.75
30724;BME280;17473;52.286;20.930;2022-12-18T11:01:11;102389.19;;;0.18;66.72
30724;BME280;17473;52.286;20.930;2022-12-18T11:03:45;102386.63;;;0.26;67.13
30724;BME280;17473;52.286;20.930;2022-12-18T11:06:18;102382.03;;;0.49;66.13
30724;BME280;17473;52.286;20.930;2022-12-18T11:09:24;102387.75;;;0.37;66.46
30724;BME280;17473;52.286;20.930;2022-12-18T11:11:57;102391.56;;;0.32;66.49
30724;BME280;17473;52.286;20.930;2022-12-18T11:14:32;102385.88;;;0.52;65.81
30724;BME280;17473;52.286;20.930;2022-12-18T11:17:00;102382.78;;;0.72;66.31
30724;BME280;17473;52.286;20.930;2022-12-18T11:20:05;102391.31;;;0.62;65.43
30724;BME280;17473;52.286;20.930;2022-12-18T11:22:36;102394.41;;;0.42;66.13
30724;BME280;17473;52.286;20.930;2022-12-18T11:25:18;102385.72;;;0.51;66.35
30724;BME280;17473;52.286;20.930;2022-12-18T11:28:08;102395.59;;;0.62;66.19
30724;BME280;17473;52.286;20.930;2022-12-18T11:36:55;102397.41;;;0.38;66.57
30724;BME280;17473;52.286;20.930;2022-12-18T11:39:44;102383.06;;;0.42;66.48
30724;BME280;17473;52.286;20.930;2022-12-18T11:42:35;102393.72;;;0.86;65.58
30724;BME280;17473;52.286;20.930;2022-12-18T11:50:57;102401.94;;;0.82;65.49
30724;BME280;17473;52.286;20.930;2022-12-18T11:53:27;102400.28;;;0.82;65.15
30724;BME280;17473;52.286;20.930;2022-12-18T12:08:21;102409.06;;;0.91;66.03
30724;BME280;17473;52.286;20.930;2022-12-18T12:11:15;102409.06;;;0.91;65.91
30724;BME280;17473;52.286;20.930;2022-12-18T12:37:12;102428.19;;;0.67;66.27
30724;BME280;17473;52.286;20.930;2022-12-18T12:39:47;102429.91;;;0.67;65.89
30724;BME280;17473;52.286;20.930;2022-12-18T12:42:38;102436.38;;;0.54;65.50
30724;BME280;17473;52.286;20.930;2022-12-18T12:45:54;102431.09;;;0.45;65.88
30724;BME280;17473;52.286;20.930;2022-12-18T12:48:35;102424.69;;;0.67;66.03
30724;BME280;17473;52.286;20.930;2022-12-18T12:51:30;102439.81;;;0.87;65.36
30724;BME280;17473;52.286;20.930;2022-12-18T12:54:00;102441.06;;;0.66;66.81
30724;BME280;17473;52.286;20.930;2022-12-18T12:59:30;102462.75;;;0.41;67.40
30724;BME280;17473;52.286;20.930;2022-12-18T13:04:56;102468.78;;;0.33;67.48
30724;BME280;17473;52.286;20.930;2022-12-18T13:07:41;102472.75;;;0.29;67.47
30724;BME280;17473;52.286;20.930;2022-12-18T13:10:30;102475.44;;;0.22;67.59
30724;BME280;17473;52.286;20.930;2022-12-18T13:13:13;102479.09;;;0.24;67.49
30724;BME280;17473;52.286;20.930;2022-12-18T13:16:07;102496.47;;;0.17;67.61
30724;BME280;17473;52.286;20.930;2022-12-18T13:18:35;102488.41;;;0.06;68.53
30724;BME280;17473;52.286;20.930;2022-12-18T13:21:21;102487.84;;;0.09;67.86
30724;BME280;17473;52.286;20.930;2022-12-18T13:23:50;102488.94;;;0.27;67.79
30724;BME280;17473;52.286;20.930;2022-12-18T13:28:54;102492.19;;;0.17;67.86
30724;BME280;17473;52.286;20.930;2022-12-18T13:34:24;102507.19;;;-0.12;68.65
30724;BME280;17473;52.286;20.930;2022-12-18T13:37:41;102493.84;;;-0.32;68.88
30724;BME280;17473;52.286;20.930;2022-12-18T13:43:23;102512.13;;;-0.46;69.37
30724;BME280;17473;52.286;20.930;2022-12-18T13:47:01;102512.03;;;-0.55;69.41
30724;BME280;17473;52.286;20.930;2022-12-18T13:49:40;102510.94;;;-0.57;69.44
30724;BME280;17473;52.286;20.930;2022-12-18T13:52:28;102517.47;;;-0.60;69.90
30724;BME280;17473;52.286;20.930;2022-12-18T13:55:06;102511.31;;;-0.61;70.28
30724;BME280;17473;52.286;20.930;2022-12-18T13:57:36;102505.84;;;-0.71;70.86
30724;BME280;17473;52.286;20.930;2022-12-18T14:02:50;102506.13;;;-0.84;70.79
30724;BME280;17473;52.286;20.930;2022-12-18T14:05:28;102525.06;;;-0.85;70.73
30724;BME280;17473;52.286;20.930;2022-12-18T14:08:03;102510.78;;;-0.89;71.13
30724;BME280;17473;52.286;20.930;2022-12-18T14:10:32;102525.28;;;-0.91;71.17
30724;BME280;17473;52.286;20.930;2022-12-18T14:13:41;102534.63;;;-1.00;71.33
30724;BME280;17473;52.286;20.930;2022-12-18T14:16:14;102532.41;;;-1.04;71.31
30724;BME280;17473;52.286;20.930;2022-12-18T14:18:52;102532.41;;;-1.04;71.40
30724;BME280;17473;52.286;20.930;2022-12-18T14:21:29;102523.03;;;-1.18;71.70
30724;BME280;17473;52.286;20.930;2022-12-18T14:24:13;102532.28;;;-1.20;72.25
30724;BME280;17473;52.286;20.930;2022-12-18T14:26:49;102520.09;;;-1.21;72.01
30724;BME280;17473;52.286;20.930;2022-12-18T14:29:26;102527.16;;;-0.97;71.74
30724;BME280;17473;52.286;20.930;2022-12-18T14:32:13;102530.75;;;-1.11;72.13
30724;BME280;17473;52.286;20.930;2022-12-18T14:34:50;102523.56;;;-1.14;71.98
30724;BME280;17473;52.286;20.930;2022-12-18T14:37:25;102516.97;;;-0.96;71.95
30724;BME280;17473;52.286;20.930;2022-12-18T14:40:02;102522.63;;;-0.84;71.54
30724;BME280;17473;52.286;20.930;2022-12-18T14:42:37;102527.63;;;-1.08;71.85
30724;BME280;17473;52.286;20.930;2022-12-18T14:45:36;102539.13;;;-1.14;72.42
30724;BME280;17473;52.286;20.930;2022-12-18T14:48:18;102544.34;;;-1.21;73.51
30724;BME280;17473;52.286;20.930;2022-12-18T14:51:02;102556.63;;;-1.27;72.83
30724;BME280;17473;52.286;20.930;2022-12-18T14:53:36;102545.97;;;-1.45;73.18
30724;BME280;17473;52.286;20.930;2022-12-18T14:56:33;102556.53;;;-1.50;73.31
30724;BME280;17473;52.286;20.930;2022-12-18T14:59:15;102552.84;;;-1.52;73.16
30724;BME280;17473;52.286;20.930;2022-12-18T15:02:08;102560.44;;;-1.61;73.53
30724;BME280;17473;52.286;20.930;2022-12-18T15:04:40;102548.25;;;-1.62;73.70